Decoded Metar for EVRA (RIGA AIRPORT in LATVIA) (IATA:N/A) | Meteo·Mobile Aviation Weather
aviador You're here:

EVRA Decoded Metar

RIGA AIRPORT in LATVIA
Report Time2019-04-21 21:50:00
UTC Time2019-04-21 22:03:43
Flight Rules vfr VFR
WindVRB at 02 kt
Visibility9999 m
Phenomena:N/A
Clouds:N/A
Expected CloudBase > 800 ft AGL from Temp-Dew spread
CeilingNone
Temp03°C (ISA -12)
Dew Point01°C (87% RH)
AAT0.5°C
QNH1025 hPa
Density Alt-1,736 ft
Elevation33 ft
Report Wrong Elevation
Raw Report
EVRA 212150Z VRB02KT CAVOK 03/01 Q1025 NOSIG=

Extra information for EVRA:More info

Metar Taf Metar & Taf Last 4 Metars F.Rules Stats Wind Profile Meteogram Temp Stats Airport Information Weather charts Add Link Nearby VenuesMetar ALERT Operation Metar Decoded Social comments